Time;durP1;ratioP1;P1;durP2;ratioP2;P2;SDS_P1;SDS_P2;PMS_P1;PMS_P2;Temp;Humidity;BMP_temperature;BMP_pressure;BME280_temperature;BME280_humidity;BME280_pressure;Samples;Min_cycle;Max_cycle;Signal;HPM_P1;HPM_P2
2023/01/05 00:04:56;;;;;;;2.67;0.90;;;;;;;11.51;64.52;99959.84;10345755;28;20054;-60
2023/01/05 00:09:58;;;;;;;2.67;0.82;;;;;;;11.59;64.03;99954.97;10341315;28;20076;-60
2023/01/05 00:25:41;;;;;;;3.47;1.08;;;;;;;11.46;63.39;99964.53;10343447;28;20053;-60
2023/01/05 00:30:45;;;;;;;2.58;0.88;;;;;;;11.49;62.49;99958.25;10343887;28;20418;-60
2023/01/05 00:35:47;;;;;;;6.22;1.33;;;;;;;11.56;61.89;99949.09;10343752;28;20530;-60
2023/01/05 00:40:48;;;;;;;3.83;1.00;;;;;;;11.61;61.49;99942.59;10345114;28;20072;-60
2023/01/05 00:45:50;;;;;;;5.05;1.20;;;;;;;11.64;60.88;99960.72;10344812;28;20054;-60
2023/01/05 00:50:52;;;;;;;5.20;1.38;;;;;;;11.67;59.59;99968.41;10341819;28;20100;-60
2023/01/05 00:55:57;;;;;;;7.75;1.73;;;;;;;11.70;57.71;99962.16;10342707;28;20514;-60
2023/01/05 01:00:59;;;;;;;7.57;1.77;;;;;;;11.77;57.76;99966.03;10342505;28;20080;-60
2023/01/05 01:06:01;;;;;;;9.10;1.90;;;;;;;11.79;56.89;99972.03;10342491;28;20076;-60
2023/01/05 01:11:05;;;;;;;7.78;1.80;;;;;;;11.83;56.51;99983.97;10343057;28;20046;-60
2023/01/05 01:16:08;;;;;;;9.27;2.10;;;;;;;11.77;56.38;99979.13;10342352;28;20049;-60
2023/01/05 01:21:10;;;;;;;7.30;1.75;;;;;;;11.75;56.09;99976.63;10340719;28;20049;-60
2023/01/05 01:26:12;;;;;;;11.45;2.03;;;;;;;11.63;55.89;99981.78;10343115;28;20049;-59
2023/01/05 01:31:14;;;;;;;7.97;1.90;;;;;;;11.51;56.16;99977.34;10342563;28;20046;-60
2023/01/05 01:36:16;;;;;;;8.90;1.95;;;;;;;11.25;55.57;99986.81;10340459;28;20111;-60
2023/01/05 01:41:18;;;;;;;8.90;2.00;;;;;;;11.24;55.18;99985.97;10340542;28;20401;-59
2023/01/05 01:46:21;;;;;;;8.68;2.05;;;;;;;11.12;54.87;99999.81;10341896;28;20046;-60
2023/01/05 01:51:33;;;;;;;12.23;2.50;;;;;;;10.97;52.98;100005.94;10341666;28;20542;-60
2023/01/05 01:56:40;;;;;;;11.15;2.60;;;;;;;10.97;53.90;100013.78;10342055;28;20062;-60
2023/01/05 02:01:41;;;;;;;10.88;2.83;;;;;;;10.84;53.67;100007.59;10342342;28;20863;-60
2023/01/05 02:06:43;;;;;;;13.05;2.78;;;;;;;10.95;53.52;99997.31;10341208;28;20517;-60
2023/01/05 02:12:04;;;;;;;10.40;2.85;;;;;;;10.88;52.27;99996.03;10340914;28;20421;-60
2023/01/05 02:17:33;;;;;;;11.82;2.67;;;;;;;10.91;52.72;100008.09;10344128;28;20050;-60
2023/01/05 02:23:02;;;;;;;14.38;3.15;;;;;;;10.76;53.26;100001.16;10341840;28;20898;-60
2023/01/05 02:28:07;;;;;;;13.48;2.78;;;;;;;10.62;53.70;99998.50;10356107;28;20509;-59
2023/01/05 02:33:39;;;;;;;10.95;2.67;;;;;;;10.42;53.13;100004.88;10342288;28;20053;-60
2023/01/05 02:39:13;;;;;;;15.07;3.22;;;;;;;10.39;53.83;100005.06;10343343;28;20038;-61
2023/01/05 02:44:17;;;;;;;15.50;3.17;;;;;;;10.31;53.97;100009.91;10346420;28;20060;-60
2023/01/05 02:49:18;;;;;;;11.63;2.33;;;;;;;10.31;54.05;100018.59;10348808;28;20406;-60
2023/01/05 02:54:25;;;;;;;14.10;3.22;;;;;;;10.31;53.60;100017.75;10348672;28;20050;-60
2023/01/05 02:59:34;;;;;;;12.68;2.72;;;;;;;10.33;54.00;100019.34;10346242;28;20069;-60
2023/01/05 03:04:44;;;;;;;14.82;3.50;;;;;;;10.51;53.79;100012.19;10352806;28;20042;-60
2023/01/05 03:09:46;;;;;;;13.40;3.10;;;;;;;10.56;53.93;100010.19;10353689;28;20057;-60
2023/01/05 03:14:53;;;;;;;14.18;3.22;;;;;;;10.62;53.58;100009.81;10354337;28;20517;-60
2023/01/05 03:19:57;;;;;;;14.00;3.00;;;;;;;10.66;53.78;100026.16;10355245;28;20050;-60
2023/01/05 03:35:49;;;;;;;13.50;3.10;;;;;;;10.68;54.03;100032.16;10352103;28;20564;-60
2023/01/05 03:40:55;;;;;;;13.38;3.03;;;;;;;10.67;54.14;100028.69;10355156;28;20304;-60
2023/01/05 03:45:57;;;;;;;15.02;3.03;;;;;;;10.61;54.10;100029.03;10352614;28;20461;-60
2023/01/05 03:50:59;;;;;;;16.73;3.35;;;;;;;10.66;54.22;100034.84;10352553;28;20049;-60
2023/01/05 03:56:00;;;;;;;19.50;3.17;;;;;;;10.76;54.12;100038.63;10353157;28;20049;-60
2023/01/05 04:01:02;;;;;;;16.60;3.40;;;;;;;10.71;54.49;100032.78;10353191;28;20053;-60
2023/01/05 04:06:04;;;;;;;10.45;2.58;;;;;;;10.70;54.48;100038.97;10348222;28;20069;-60
2023/01/05 04:11:24;;;;;;;13.07;3.13;;;;;;;10.63;54.44;100047.25;10344708;28;20050;-60
2023/01/05 04:16:27;;;;;;;12.10;2.95;;;;;;;10.68;54.65;100063.53;10346241;28;20058;-60
2023/01/05 04:21:29;;;;;;;15.48;3.03;;;;;;;10.62;54.92;100064.75;10345955;28;20046;-60
2023/01/05 04:26:30;;;;;;;14.70;3.25;;;;;;;10.60;55.08;100050.06;10346907;28;20045;-60
2023/01/05 04:31:32;;;;;;;17.83;3.40;;;;;;;10.62;55.14;100048.19;10345910;28;20065;-60
2023/01/05 04:36:34;;;;;;;16.67;3.15;;;;;;;10.58;54.75;100047.53;10344262;28;20057;-60
2023/01/05 04:41:35;;;;;;;12.13;3.10;;;;;;;10.58;55.00;100059.75;10345752;28;20053;-60
2023/01/05 04:46:37;;;;;;;17.27;3.15;;;;;;;10.60;55.06;100066.59;10345304;28;20112;-59
2023/01/05 04:51:39;;;;;;;12.38;2.75;;;;;;;10.66;54.97;100074.09;10344450;28;20053;-60
2023/01/05 04:56:40;;;;;;;15.55;3.42;;;;;;;10.71;54.87;100081.66;10345708;28;20085;-60
2023/01/05 05:01:42;;;;;;;14.65;3.10;;;;;;;10.67;55.09;100078.38;10342682;28;20060;-59
2023/01/05 05:06:44;;;;;;;13.25;3.10;;;;;;;10.59;54.95;100077.97;10341964;28;20049;-60
2023/01/05 05:11:45;;;;;;;17.42;3.30;;;;;;;10.49;55.23;100068.97;10345953;28;20065;-60
2023/01/05 05:16:47;;;;;;;12.75;2.88;;;;;;;10.47;55.49;100078.69;10342631;28;20759;-60
2023/01/05 05:21:49;;;;;;;13.60;2.80;;;;;;;10.17;55.78;100088.25;10342834;28;20077;-60
2023/01/05 05:26:50;;;;;;;20.73;5.75;;;;;;;10.33;55.36;100084.69;10344629;28;20161;-60
2023/01/05 05:31:52;;;;;;;35.38;14.63;;;;;;;10.33;55.62;100087.31;10341472;28;20060;-59
2023/01/05 05:36:54;;;;;;;42.20;19.65;;;;;;;10.33;55.52;100089.06;10342395;28;20167;-59
2023/01/05 05:41:55;;;;;;;15.25;3.85;;;;;;;10.25;55.75;100099.97;10341402;28;20864;-60
2023/01/05 05:46:57;;;;;;;12.02;3.25;;;;;;;10.31;55.99;100114.47;10343424;28;20054;-60
2023/01/05 05:51:58;;;;;;;16.02;4.78;;;;;;;10.35;55.85;100110.75;10341135;28;20058;-60
2023/01/05 05:57:00;;;;;;;15.52;3.42;;;;;;;10.38;55.87;100110.56;10343400;28;20148;-60
2023/01/05 06:02:02;;;;;;;14.80;3.20;;;;;;;10.45;55.76;100109.31;10342579;28;20053;-60
2023/01/05 06:07:04;;;;;;;11.43;2.83;;;;;;;10.42;55.89;100107.69;10343996;28;20053;-60
2023/01/05 06:12:05;;;;;;;17.17;3.30;;;;;;;10.43;55.88;100125.09;10345160;28;20053;-60
2023/01/05 06:17:07;;;;;;;10.35;2.85;;;;;;;10.39;56.07;100131.41;10350658;28;20050;-60
2023/01/05 06:22:09;;;;;;;17.02;3.33;;;;;;;10.49;55.94;100136.97;10349432;28;20057;-60
2023/01/05 06:27:11;;;;;;;11.32;2.90;;;;;;;10.46;56.59;100143.19;10350398;28;20053;-60
2023/01/05 06:32:12;;;;;;;14.95;3.00;;;;;;;10.42;55.99;100157.38;10349529;28;20058;-60
2023/01/05 06:37:14;;;;;;;20.98;3.15;;;;;;;10.38;56.24;100155.00;10348231;28;20045;-60
2023/01/05 06:42:15;;;;;;;13.50;2.97;;;;;;;10.40;56.13;100153.16;10349725;28;20058;-59
2023/01/05 06:47:23;;;;;;;15.40;3.55;;;;;;;10.30;56.31;100157.19;10349878;28;20049;-60
2023/01/05 06:52:25;;;;;;;16.65;3.40;;;;;;;10.28;56.70;100159.06;10348583;28;20057;-60
2023/01/05 06:57:27;;;;;;;16.27;3.25;;;;;;;10.31;56.56;100164.97;10348316;28;20451;-60
2023/01/05 07:02:28;;;;;;;14.68;3.10;;;;;;;10.25;57.09;100181.00;10349903;28;20053;-60
2023/01/05 07:07:30;;;;;;;17.58;3.50;;;;;;;10.31;57.18;100187.66;10347596;28;20077;-59
2023/01/05 07:12:32;;;;;;;16.77;3.45;;;;;;;10.33;57.12;100193.66;10349559;28;20053;-60
2023/01/05 07:17:35;;;;;;;18.45;3.58;;;;;;;10.33;57.45;100199.72;10349645;28;20306;-60
2023/01/05 07:22:37;;;;;;;16.35;3.35;;;;;;;10.39;57.56;100220.31;10347540;28;20056;-61
2023/01/05 07:27:38;;;;;;;13.38;3.28;;;;;;;10.37;57.37;100216.94;10341009;28;20391;-61
2023/01/05 07:32:40;;;;;;;15.52;3.70;;;;;;;10.29;57.67;100223.50;10344986;28;20061;-61
2023/01/05 07:37:43;;;;;;;16.90;3.63;;;;;;;10.28;57.54;100230.47;10340897;28;20980;-61
2023/01/05 07:42:50;;;;;;;15.20;3.47;;;;;;;10.30;57.60;100233.00;10347966;28;20057;-60
2023/01/05 07:47:51;;;;;;;13.57;3.47;;;;;;;10.36;57.47;100237.91;10347861;28;20049;-60
2023/01/05 07:52:53;;;;;;;16.70;3.40;;;;;;;10.40;57.47;100244.66;10347242;28;20046;-62
2023/01/05 07:57:55;;;;;;;15.82;3.97;;;;;;;10.44;57.21;100254.88;10346409;28;20045;-62
2023/01/05 08:02:56;;;;;;;18.67;3.13;;;;;;;10.31;57.64;100258.25;10346088;28;20060;-62
2023/01/05 08:07:58;;;;;;;16.85;3.40;;;;;;;10.44;57.47;100260.09;10344805;28;20425;-62
2023/01/05 08:18:22;;;;;;;14.98;2.88;;;;;;;10.44;58.54;100277.56;10348245;28;20052;-62
2023/01/05 08:23:25;;;;;;;17.83;3.80;;;;;;;10.42;59.01;100287.25;10348562;28;20058;-62
2023/01/05 08:28:28;;;;;;;20.90;3.30;;;;;;;10.41;58.93;100296.88;10347010;28;20058;-63
2023/01/05 08:33:36;;;;;;;14.00;3.42;;;;;;;10.41;59.33;100288.19;10346692;28;20965;-62
2023/01/05 08:38:37;;;;;;;13.90;3.38;;;;;;;10.29;59.36;100299.31;10346218;28;20054;-62
2023/01/05 08:43:39;;;;;;;13.95;3.53;;;;;;;10.33;59.21;100298.22;10347023;28;20960;-62
2023/01/05 08:48:40;;;;;;;18.83;3.50;;;;;;;10.46;59.24;100291.41;10347417;28;20045;-62
2023/01/05 08:53:42;;;;;;;15.65;3.40;;;;;;;10.43;59.44;100299.41;10346878;28;20053;-62
2023/01/05 08:58:45;;;;;;;17.35;3.08;;;;;;;10.34;59.74;100297.28;10347205;28;20150;-62
2023/01/05 09:03:47;;;;;;;14.50;3.55;;;;;;;10.38;60.09;100311.88;10346475;28;20056;-62
2023/01/05 09:08:49;;;;;;;15.38;3.30;;;;;;;10.49;59.77;100318.25;10346927;28;20054;-62
2023/01/05 09:13:53;;;;;;;17.80;4.10;;;;;;;10.52;59.42;100328.53;10345826;28;20046;-62
2023/01/05 09:18:57;;;;;;;15.40;4.75;;;;;;;10.81;59.21;100320.88;10346350;28;20072;-62
2023/01/05 09:23:58;;;;;;;14.32;3.08;;;;;;;10.87;58.56;100321.38;10344481;28;20505;-62
2023/01/05 09:29:00;;;;;;;17.35;3.78;;;;;;;10.95;58.39;100319.19;10344340;28;20049;-62
2023/01/05 09:34:02;;;;;;;13.30;3.35;;;;;;;11.05;58.33;100330.88;10345330;28;20576;-62
2023/01/05 09:39:05;;;;;;;17.23;3.47;;;;;;;10.97;58.45;100332.22;10345707;28;20688;-62
2023/01/05 09:44:26;;;;;;;16.23;3.13;;;;;;;10.71;58.86;100333.63;10345037;28;20089;-62
2023/01/05 09:49:30;;;;;;;15.13;3.50;;;;;;;10.63;59.38;100341.03;10344671;28;20395;-62
2023/01/05 09:54:33;;;;;;;17.05;3.78;;;;;;;10.90;59.21;100346.56;10343713;28;20056;-62
2023/01/05 09:59:37;;;;;;;20.42;4.07;;;;;;;10.95;58.92;100368.09;10344923;28;20057;-62
2023/01/05 10:04:39;;;;;;;19.88;3.95;;;;;;;11.12;58.73;100360.19;10344641;28;20733;-62
2023/01/05 10:09:42;;;;;;;17.08;3.88;;;;;;;11.11;58.43;100364.56;10344777;28;20406;-62
2023/01/05 10:14:49;;;;;;;23.77;4.13;;;;;;;11.28;58.27;100368.88;10344331;28;20050;-62
2023/01/05 10:19:51;;;;;;;23.27;4.53;;;;;;;11.09;58.32;100369.03;10345516;28;20517;-62
2023/01/05 10:25:18;;;;;;;18.65;4.20;;;;;;;11.18;58.15;100362.47;10343735;28;20076;-62
2023/01/05 10:30:50;;;;;;;16.50;3.88;;;;;;;11.09;58.08;100371.66;10344312;28;20486;-62
2023/01/05 10:36:15;;;;;;;21.15;3.70;;;;;;;11.13;58.20;100360.09;10343759;28;20050;-62
2023/01/05 10:41:46;;;;;;;15.98;3.28;;;;;;;11.43;57.52;100369.78;10344827;28;20159;-62
2023/01/05 10:46:48;;;;;;;18.13;3.78;;;;;;;11.45;57.49;100367.94;10343576;28;20061;-62
2023/01/05 10:51:57;;;;;;;22.77;4.10;;;;;;;11.36;57.45;100374.53;10343910;28;20076;-62
2023/01/05 10:57:27;;;;;;;24.02;4.20;;;;;;;11.39;57.61;100377.00;10341638;28;20446;-62
2023/01/05 11:02:45;;;;;;;18.40;3.65;;;;;;;11.36;57.58;100378.94;10348792;28;20141;-62
2023/01/05 11:07:49;;;;;;;18.95;3.63;;;;;;;11.49;57.72;100388.63;10350783;28;20054;-62
2023/01/05 11:12:59;;;;;;;20.13;3.92;;;;;;;11.42;57.56;100392.50;10349067;28;20054;-62
2023/01/05 11:18:01;;;;;;;21.15;4.22;;;;;;;11.43;57.39;100393.38;10350322;28;20045;-63
2023/01/05 11:23:03;;;;;;;22.10;4.55;;;;;;;11.47;57.25;100389.66;10349956;28;20053;-63
2023/01/05 11:28:09;;;;;;;17.00;4.00;;;;;;;11.48;57.41;100397.41;10348598;28;20518;-62
2023/01/05 11:33:13;;;;;;;20.40;4.60;;;;;;;11.46;57.27;100403.69;10348365;28;20069;-62
2023/01/05 11:38:26;;;;;;;16.75;3.67;;;;;;;11.68;55.92;100399.75;10349512;28;20149;-63
2023/01/05 11:43:31;;;;;;;20.60;4.30;;;;;;;11.83;55.84;100390.16;10348573;28;20050;-63
2023/01/05 11:48:35;;;;;;;19.27;4.07;;;;;;;11.91;55.56;100403.69;10349992;28;20526;-62
2023/01/05 11:53:39;;;;;;;20.42;4.05;;;;;;;11.89;55.46;100402.91;10345336;28;20145;-62
2023/01/05 11:58:45;;;;;;;18.42;3.92;;;;;;;11.81;54.97;100398.13;10348814;28;20188;-63
2023/01/05 12:04:15;;;;;;;21.77;4.20;;;;;;;11.96;54.50;100401.66;10345070;28;21505;-62
2023/01/05 12:09:32;;;;;;;21.30;4.22;;;;;;;12.02;54.78;100393.44;10344161;28;20056;-62
2023/01/05 12:14:42;;;;;;;19.58;4.00;;;;;;;12.14;54.95;100401.44;10340153;28;20048;-63
2023/01/05 12:20:10;;;;;;;20.02;3.83;;;;;;;12.13;54.44;100397.09;10343952;28;20049;-62
2023/01/05 12:25:30;;;;;;;15.48;3.45;;;;;;;11.94;53.51;100414.00;10344361;28;20050;-63
2023/01/05 12:30:43;;;;;;;18.90;3.63;;;;;;;11.94;53.98;100414.00;10345375;28;20478;-62
2023/01/05 12:36:39;;;;;;;22.95;4.38;;;;;;;11.78;53.71;100421.91;10345611;28;20045;-63
2023/01/05 12:42:11;;;;;;;18.45;5.35;;;;;;;11.44;53.52;100431.75;10347286;28;20082;-63
2023/01/05 12:47:23;;;;;;;19.02;4.22;;;;;;;11.34;53.83;100423.53;10343546;28;20057;-63
2023/01/05 12:52:39;;;;;;;14.43;3.60;;;;;;;11.40;52.98;100428.41;10345099;28;20052;-62
2023/01/05 12:57:47;;;;;;;17.63;3.40;;;;;;;11.28;52.44;100442.19;10342506;28;20185;-62
2023/01/05 13:03:12;;;;;;;13.55;2.70;;;;;;;11.18;51.69;100441.84;10345503;28;20046;-63
2023/01/05 13:08:21;;;;;;;12.93;2.92;;;;;;;11.17;51.21;100431.47;10342910;28;20058;-62
2023/01/05 13:13:31;;;;;;;12.77;2.95;;;;;;;11.15;50.62;100433.31;10343215;28;20054;-62
2023/01/05 13:18:36;;;;;;;17.00;3.10;;;;;;;11.03;50.74;100426.09;10343493;28;20050;-62
2023/01/05 13:24:05;;;;;;;13.75;3.22;;;;;;;11.06;49.16;100426.81;10343464;28;20072;-62
2023/01/05 13:29:20;;;;;;;12.00;3.00;;;;;;;11.21;49.23;100420.72;10349967;28;20057;-63
2023/01/05 13:34:29;;;;;;;15.40;3.15;;;;;;;11.39;50.67;100420.66;10341927;28;20053;-62
2023/01/05 13:40:18;;;;;;;16.48;3.78;;;;;;;11.42;49.74;100423.94;10342273;28;20425;-62
2023/01/05 13:45:23;;;;;;;14.75;3.15;;;;;;;11.55;50.44;100430.19;10331217;28;20053;-61
2023/01/05 13:50:40;;;;;;;14.32;4.03;;;;;;;11.78;50.24;100431.53;10340759;28;20054;-61
2023/01/05 13:55:52;;;;;;;20.42;6.35;;;;;;;11.90;49.63;100430.84;10334520;28;20057;-61
2023/01/05 14:00:55;;;;;;;15.07;3.67;;;;;;;11.87;50.16;100431.84;10339141;28;20060;-61
2023/01/05 14:05:59;;;;;;;17.52;3.53;;;;;;;11.72;50.52;100431.88;10332951;28;20057;-61
2023/01/05 14:11:20;;;;;;;23.90;6.38;;;;;;;11.53;49.95;100439.06;10337780;28;20056;-61
2023/01/05 14:16:36;;;;;;;15.23;3.70;;;;;;;11.53;49.44;100446.94;10338185;28;20065;-61
2023/01/05 14:21:50;;;;;;;13.52;3.10;;;;;;;11.52;49.46;100451.31;10337548;28;20161;-62
2023/01/05 14:27:21;;;;;;;11.05;3.08;;;;;;;11.49;49.18;100454.13;10340488;28;20520;-62
2023/01/05 14:32:43;;;;;;;16.57;3.63;;;;;;;11.42;52.33;100447.50;10336963;28;20080;-61
2023/01/05 14:38:01;;;;;;;17.70;3.45;;;;;;;11.31;53.63;100449.88;10349203;28;20050;-61
2023/01/05 14:43:18;;;;;;;21.55;3.72;;;;;;;11.24;54.15;100451.13;10343847;28;20057;-61
2023/01/05 14:48:30;;;;;;;21.10;4.40;;;;;;;11.19;54.86;100459.22;10348461;28;20058;-61
2023/01/05 14:53:36;;;;;;;18.27;4.43;;;;;;;11.16;55.13;100464.66;10338742;28;20052;-62
2023/01/05 14:58:42;;;;;;;22.40;4.78;;;;;;;11.24;55.17;100467.69;10344566;28;20064;-61
2023/01/05 15:03:59;;;;;;;18.42;3.60;;;;;;;11.11;55.71;100473.69;10342529;28;20050;-61
2023/01/05 15:09:46;;;;;;;16.48;3.97;;;;;;;11.09;55.91;100481.59;10347509;28;20735;-61
2023/01/05 15:15:14;;;;;;;21.33;3.92;;;;;;;11.10;55.74;100480.69;10355419;28;20074;-61
2023/01/05 15:20:47;;;;;;;20.20;4.53;;;;;;;10.89;56.41;100479.16;10346701;28;20054;-61
2023/01/05 15:25:54;;;;;;;19.92;4.68;;;;;;;10.89;56.54;100473.91;10348921;28;20815;-61
2023/01/05 15:31:19;;;;;;;18.88;5.03;;;;;;;10.84;56.78;100481.19;10347103;28;20053;-61
2023/01/05 15:36:27;;;;;;;25.40;4.63;;;;;;;10.81;56.67;100478.72;10347904;28;20060;-61
2023/01/05 15:41:29;;;;;;;25.58;5.35;;;;;;;10.66;57.08;100479.53;10349710;28;20054;-61
2023/01/05 15:46:33;;;;;;;20.60;4.82;;;;;;;10.61;57.22;100478.91;10346722;28;20077;-61
2023/01/05 15:51:34;;;;;;;24.83;4.82;;;;;;;10.64;57.13;100486.59;10349057;28;20065;-61
2023/01/05 15:56:39;;;;;;;24.33;5.72;;;;;;;10.61;57.37;100491.97;10347693;28;20270;-61
2023/01/05 16:01:41;;;;;;;25.95;5.32;;;;;;;10.58;57.51;100492.16;10346069;28;20165;-61
2023/01/05 16:06:49;;;;;;;26.75;4.47;;;;;;;10.63;57.38;100487.50;10345904;28;20397;-61
2023/01/05 16:11:57;;;;;;;24.08;7.78;;;;;;;10.66;57.43;100496.97;10348605;28;20054;-61
2023/01/05 16:17:21;;;;;;;57.72;22.30;;;;;;;10.65;57.44;100492.66;10345933;28;20054;-61
2023/01/05 16:22:32;;;;;;;26.23;7.85;;;;;;;10.55;58.02;100491.44;10346527;28;20056;-61
2023/01/05 16:27:38;;;;;;;26.45;6.40;;;;;;;10.39;58.46;100496.59;10345062;28;20060;-61
2023/01/05 16:32:41;;;;;;;24.55;6.22;;;;;;;10.37;58.94;100499.28;10345368;28;20062;-61
2023/01/05 16:37:42;;;;;;;27.45;7.97;;;;;;;10.39;59.37;100504.44;10346489;28;20053;-61
2023/01/05 16:42:49;;;;;;;27.25;5.50;;;;;;;10.44;59.95;100507.66;10345168;28;20054;-60
2023/01/05 16:47:52;;;;;;;26.50;5.55;;;;;;;10.37;60.48;100499.28;10344828;28;20217;-61
2023/01/05 16:52:55;;;;;;;27.27;7.72;;;;;;;10.40;60.73;100506.13;10342221;28;20054;-61
2023/01/05 16:57:58;;;;;;;24.45;5.05;;;;;;;10.38;61.11;100497.50;10341953;28;20049;-60
2023/01/05 17:03:22;;;;;;;27.83;7.10;;;;;;;10.33;62.05;100509.97;10342355;28;20049;-61
2023/01/05 17:08:27;;;;;;;32.20;7.70;;;;;;;10.25;61.92;100512.13;10344028;28;20052;-61
2023/01/05 17:13:36;;;;;;;35.03;10.15;;;;;;;10.34;62.15;100511.66;10346024;28;20061;-61
2023/01/05 17:18:38;;;;;;;28.30;7.45;;;;;;;10.48;61.75;100512.66;10341572;28;20058;-61
2023/01/05 17:23:45;;;;;;;25.95;4.80;;;;;;;10.40;61.88;100516.56;10341840;28;20077;-61
2023/01/05 17:28:47;;;;;;;33.55;5.25;;;;;;;10.19;62.67;100515.91;10344224;28;20208;-61
2023/01/05 17:33:49;;;;;;;27.98;4.97;;;;;;;10.23;62.73;100511.34;10334146;28;20450;-61
2023/01/05 17:38:51;;;;;;;27.52;4.70;;;;;;;10.23;62.82;100503.50;10337291;28;20046;-61
2023/01/05 17:43:54;;;;;;;22.52;4.55;;;;;;;10.15;63.06;100514.34;10332405;28;20056;-61
2023/01/05 17:49:00;;;;;;;29.92;4.80;;;;;;;10.17;63.37;100502.06;10339669;28;20042;-60
2023/01/05 17:54:04;;;;;;;24.83;4.90;;;;;;;10.12;63.65;100511.03;10332891;28;20050;-60
2023/01/05 17:59:06;;;;;;;40.05;5.40;;;;;;;10.00;64.06;100494.19;10337013;28;20054;-61
2023/01/05 18:04:07;;;;;;;28.55;4.78;;;;;;;10.09;64.05;100492.88;10334850;28;20776;-61
2023/01/05 18:09:10;;;;;;;25.40;4.47;;;;;;;10.18;63.82;100485.44;10342906;28;20052;-60
2023/01/05 18:14:11;;;;;;;26.83;4.47;;;;;;;10.18;63.82;100481.97;10338585;28;20881;-60
2023/01/05 18:19:14;;;;;;;30.05;5.00;;;;;;;10.28;64.01;100488.44;10345049;28;20050;-60
2023/01/05 18:24:18;;;;;;;30.30;5.00;;;;;;;10.39;63.41;100475.69;10339497;28;20050;-61
2023/01/05 18:29:19;;;;;;;27.90;4.82;;;;;;;10.45;63.44;100478.00;10347558;28;20062;-61
2023/01/05 18:34:22;;;;;;;23.33;4.75;;;;;;;10.53;63.36;100475.81;10338679;28;20053;-61
2023/01/05 18:39:24;;;;;;;24.20;4.60;;;;;;;10.47;63.50;100477.00;10346958;28;20038;-61
2023/01/05 18:44:26;;;;;;;27.27;5.20;;;;;;;10.46;63.54;100474.47;10340700;28;20494;-61
2023/01/05 18:49:28;;;;;;;27.63;5.10;;;;;;;10.46;63.78;100477.09;10348978;28;20054;-62
2023/01/05 18:54:30;;;;;;;29.90;6.88;;;;;;;10.46;64.15;100475.28;10338997;28;20050;-61
2023/01/05 18:59:32;;;;;;;25.10;6.03;;;;;;;10.28;64.48;100467.53;10347738;28;20053;-61
2023/01/05 19:04:34;;;;;;;35.53;8.45;;;;;;;10.23;64.98;100464.31;10341701;28;20410;-61
2023/01/05 19:09:36;;;;;;;28.80;6.35;;;;;;;10.15;64.69;100472.53;10345590;28;20486;-61
2023/01/05 19:14:38;;;;;;;44.13;13.18;;;;;;;10.05;65.37;100471.28;10339634;28;20145;-61
2023/01/05 19:19:40;;;;;;;33.92;10.73;;;;;;;10.07;65.59;100463.38;10344509;28;20061;-61
2023/01/05 19:24:42;;;;;;;55.40;22.70;;;;;;;10.05;65.72;100466.06;10336853;28;20042;-61
2023/01/05 19:29:43;;;;;;;25.23;8.15;;;;;;;9.96;66.06;100466.50;10347954;28;20413;-61
2023/01/05 19:34:45;;;;;;;27.85;8.23;;;;;;;10.01;66.05;100467.09;10343225;28;20057;-61
2023/01/05 19:39:47;;;;;;;32.55;11.20;;;;;;;10.12;66.00;100461.38;10346747;28;20815;-61
2023/01/05 19:44:49;;;;;;;28.05;7.53;;;;;;;10.12;65.98;100461.38;10341500;28;20057;-61
2023/01/05 19:49:51;;;;;;;25.42;7.70;;;;;;;10.13;65.74;100463.06;10344347;28;20046;-62
2023/01/05 19:54:53;;;;;;;30.73;11.15;;;;;;;10.07;65.90;100464.22;10345135;28;20049;-62
2023/01/05 19:59:55;;;;;;;55.10;21.30;;;;;;;9.99;66.23;100458.50;10345171;28;20053;-61
2023/01/05 20:04:57;;;;;;;91.03;42.25;;;;;;;9.98;66.32;100445.53;10343148;28;20053;-62
2023/01/05 20:09:59;;;;;;;38.58;17.13;;;;;;;10.06;66.50;100443.38;10346803;28;20042;-62
2023/01/05 20:15:01;;;;;;;21.35;7.18;;;;;;;10.05;66.40;100441.69;10347336;28;20502;-61
2023/01/05 20:20:02;;;;;;;27.67;8.40;;;;;;;10.07;66.32;100432.88;10344285;28;20054;-61
2023/01/05 20:25:05;;;;;;;19.85;5.70;;;;;;;10.14;66.33;100443.84;10345078;28;20056;-61
2023/01/05 20:30:07;;;;;;;20.90;5.07;;;;;;;10.18;66.34;100427.06;10343690;28;20057;-61
2023/01/05 20:35:10;;;;;;;20.27;7.38;;;;;;;10.16;66.17;100436.75;10345123;28;20986;-61
2023/01/05 20:40:12;;;;;;;16.77;5.85;;;;;;;10.15;66.30;100432.47;10348119;28;20049;-61
2023/01/05 20:45:14;;;;;;;20.88;4.70;;;;;;;10.27;66.18;100444.94;10348563;28;20057;-62
2023/01/05 20:50:16;;;;;;;19.58;6.05;;;;;;;10.28;66.10;100437.00;10343551;28;20884;-61
2023/01/05 20:55:19;;;;;;;16.50;6.20;;;;;;;10.30;66.05;100436.91;10344379;28;20521;-61
2023/01/05 21:00:21;;;;;;;17.65;4.88;;;;;;;10.19;66.27;100434.00;10343757;28;20049;-62
2023/01/05 21:05:25;;;;;;;19.55;5.30;;;;;;;10.07;66.65;100432.00;10344578;28;20068;-61
2023/01/05 21:10:27;;;;;;;15.45;4.47;;;;;;;9.88;67.20;100423.38;10344953;28;20053;-61
2023/01/05 21:15:29;;;;;;;17.48;5.20;;;;;;;9.83;67.24;100431.44;10344628;28;20050;-61
2023/01/05 21:20:30;;;;;;;12.27;4.40;;;;;;;9.88;67.52;100421.63;10340699;28;20061;-61
2023/01/05 21:25:32;;;;;;;13.15;3.97;;;;;;;9.97;67.43;100425.56;10341760;28;20160;-61
2023/01/05 21:30:54;;;;;;;12.75;3.67;;;;;;;9.94;67.82;100425.69;10342005;28;21060;-61
2023/01/05 21:35:56;;;;;;;8.98;3.67;;;;;;;10.03;67.54;100426.09;10342095;28;20057;-61
2023/01/05 21:41:07;;;;;;;14.18;5.57;;;;;;;10.08;67.83;100418.00;10341519;28;20050;-61
2023/01/05 21:46:10;;;;;;;8.50;3.08;;;;;;;10.23;67.36;100417.25;10342478;28;20057;-61
2023/01/05 21:56:38;;;;;;;9.90;3.53;;;;;;;10.37;67.21;100404.31;10342968;28;20743;-60
2023/01/05 22:01:39;;;;;;;10.75;3.60;;;;;;;10.45;67.12;100418.69;10339524;28;20049;-61
2023/01/05 22:06:41;;;;;;;8.73;3.13;;;;;;;10.43;67.52;100411.84;10342486;28;20060;-60
2023/01/05 22:11:43;;;;;;;11.98;5.00;;;;;;;10.44;67.70;100409.16;10341539;28;20050;-61
2023/01/05 22:16:44;;;;;;;9.02;5.80;;;;;;;10.49;67.67;100401.06;10344085;28;20045;-60
2023/01/05 22:21:46;;;;;;;11.38;6.07;;;;;;;10.32;68.06;100390.63;10341306;28;20049;-60
2023/01/05 22:26:47;;;;;;;16.95;10.38;;;;;;;10.18;68.51;100383.50;10343742;28;20052;-60
2023/01/05 22:31:49;;;;;;;12.23;5.25;;;;;;;10.20;68.49;100386.88;10341537;28;20414;-61
2023/01/05 22:36:52;;;;;;;6.30;3.05;;;;;;;10.23;68.45;100389.34;10340872;28;20082;-61
2023/01/05 22:41:54;;;;;;;5.03;2.50;;;;;;;10.29;68.52;100390.78;10341165;28;20815;-61
2023/01/05 22:46:56;;;;;;;4.18;2.28;;;;;;;10.32;68.36;100385.41;10340935;28;20128;-61
2023/01/05 22:51:57;;;;;;;6.00;2.35;;;;;;;10.36;68.54;100384.31;10341872;28;20053;-61
2023/01/05 22:56:59;;;;;;;5.35;2.35;;;;;;;10.43;68.11;100383.09;10346567;28;20061;-61
2023/01/05 23:02:01;;;;;;;4.68;2.20;;;;;;;10.38;68.43;100377.22;10348997;28;20066;-60
2023/01/05 23:07:03;;;;;;;4.90;1.98;;;;;;;10.43;68.29;100378.72;10347004;28;20093;-60
2023/01/05 23:12:05;;;;;;;3.80;1.90;;;;;;;10.51;68.22;100375.69;10348580;28;20046;-60
2023/01/05 23:17:10;;;;;;;5.65;2.03;;;;;;;10.43;68.23;100368.25;10347634;28;20141;-60
2023/01/05 23:22:12;;;;;;;5.32;2.00;;;;;;;10.50;68.13;100364.38;10347191;28;20045;-60
2023/01/05 23:27:14;;;;;;;5.97;1.90;;;;;;;10.65;67.40;100359.25;10348041;28;20057;-60
2023/01/05 23:32:16;;;;;;;6.25;2.20;;;;;;;10.68;67.54;100352.09;10345774;28;20057;-60
2023/01/05 23:37:17;;;;;;;5.22;2.00;;;;;;;10.61;67.77;100345.50;10347892;28;20053;-60
2023/01/05 23:47:39;;;;;;;6.40;2.20;;;;;;;10.42;68.73;100339.53;10349203;28;20134;-60
2023/01/05 23:52:41;;;;;;;4.10;2.03;;;;;;;10.38;69.00;100333.63;10347727;28;20060;-60
2023/01/05 23:57:42;;;;;;;5.20;2.10;;;;;;;10.47;68.86;100324.47;10347752;28;20050;-60
